createdAt,value
2023-02-14T00:02:27.290Z,53.80
2023-02-14T00:05:00.872Z,46.85
2023-02-14T00:07:34.233Z,48.25
2023-02-14T00:10:08.832Z,53.50
2023-02-14T00:12:43.804Z,53.45
2023-02-14T00:15:25.534Z,58.40
2023-02-14T00:18:00.483Z,62.20
2023-02-14T00:20:33.829Z,55.15
2023-02-14T00:23:07.210Z,70.15
2023-02-14T00:25:40.360Z,68.25
2023-02-14T00:28:14.949Z,70.00
2023-02-14T00:30:48.901Z,66.10
2023-02-14T00:33:22.222Z,66.63
2023-02-14T00:35:55.793Z,61.17
2023-02-14T00:38:28.876Z,56.60
2023-02-14T00:41:02.172Z,62.72
2023-02-14T00:43:36.803Z,68.35
2023-02-14T00:46:09.971Z,67.25
2023-02-14T00:48:43.492Z,79.97
2023-02-14T00:51:18.398Z,67.35
2023-02-14T00:53:52.497Z,68.88
2023-02-14T00:56:25.800Z,72.15
2023-02-14T00:59:00.354Z,73.95
2023-02-14T01:01:33.557Z,67.78
2023-02-14T01:04:07.693Z,72.32
2023-02-14T01:06:41.162Z,64.07
2023-02-14T01:09:14.791Z,73.72
2023-02-14T01:11:48.805Z,77.53
2023-02-14T01:14:23.952Z,81.30
2023-02-14T01:16:57.648Z,75.88
2023-02-14T01:19:30.917Z,70.72
2023-02-14T01:22:04.395Z,67.65
2023-02-14T01:24:38.168Z,71.28
2023-02-14T01:27:11.375Z,72.65
2023-02-14T01:29:45.916Z,73.85
2023-02-14T01:32:19.146Z,78.47
2023-02-14T01:34:52.407Z,73.03
2023-02-14T01:37:25.453Z,79.53
2023-02-14T01:39:59.172Z,74.10
2023-02-14T01:42:34.604Z,79.82
2023-02-14T01:45:16.043Z,71.50
2023-02-14T01:47:52.509Z,68.78
2023-02-14T01:50:30.074Z,65.05
2023-02-14T01:53:07.123Z,59.83
2023-02-14T01:55:45.344Z,65.07
2023-02-14T01:58:22.562Z,53.30
2023-02-14T02:01:00.817Z,52.97
2023-02-14T02:03:38.744Z,54.40
2023-02-14T02:06:16.723Z,48.88
2023-02-14T02:08:59.078Z,64.72
2023-02-14T02:11:35.333Z,57.30
2023-02-14T02:14:14.620Z,51.72
2023-02-14T02:17:18.824Z,61.55
2023-02-14T02:20:44.061Z,61.78
2023-02-14T02:23:47.427Z,55.22
2023-02-14T02:26:52.313Z,53.97
2023-02-14T02:30:02.486Z,49.65
2023-02-14T02:33:14.156Z,54.03
2023-02-14T02:36:08.819Z,52.10
2023-02-14T02:38:56.452Z,55.53
2023-02-14T02:41:40.278Z,51.90
2023-02-14T02:44:18.988Z,55.97
2023-02-14T02:47:03.918Z,48.80
2023-02-14T02:50:12.300Z,48.53
2023-02-14T02:53:04.506Z,51.22
2023-02-14T02:56:01.852Z,48.45
2023-02-14T02:58:40.124Z,49.17
2023-02-14T03:01:17.845Z,48.13
2023-02-14T03:04:14.371Z,57.03
2023-02-14T03:06:48.606Z,56.33
2023-02-14T03:09:54.211Z,54.95
2023-02-14T03:13:09.412Z,45.30
2023-02-14T03:15:55.147Z,46.42
2023-02-14T03:18:40.773Z,48.85
2023-02-14T03:21:23.385Z,53.88
2023-02-14T03:24:04.383Z,55.15
2023-02-14T03:26:49.524Z,44.30
2023-02-14T03:29:38.288Z,46.42
2023-02-14T03:32:17.092Z,48.20
2023-02-14T03:34:58.982Z,48.22
2023-02-14T03:37:38.093Z,50.70
2023-02-14T03:40:15.434Z,47.35
2023-02-14T03:42:54.295Z,46.08
2023-02-14T03:45:33.835Z,40.95
2023-02-14T03:48:10.257Z,43.35
2023-02-14T03:50:47.008Z,43.30
2023-02-14T03:53:24.144Z,44.58
2023-02-14T03:56:04.730Z,47.33
2023-02-14T03:58:43.860Z,46.03
2023-02-14T04:01:24.436Z,39.55
2023-02-14T04:03:58.890Z,51.30
2023-02-14T04:06:32.142Z,49.40
2023-02-14T04:09:06.316Z,41.53
2023-02-14T04:11:39.817Z,55.05
2023-02-14T04:14:14.774Z,56.65
2023-02-14T04:17:06.158Z,47.10
2023-02-14T04:19:39.347Z,47.50
2023-02-14T04:22:12.541Z,42.72
2023-02-14T04:24:46.198Z,48.30
2023-02-14T04:27:19.935Z,47.60
2023-02-14T04:29:54.753Z,54.38
2023-02-14T04:32:28.867Z,45.90
2023-02-14T04:37:35.581Z,41.97
2023-02-14T04:42:42.986Z,66.22
2023-02-14T04:45:17.829Z,63.95
2023-02-14T04:47:51.243Z,59.80
2023-02-14T04:50:25.954Z,66.10
2023-02-14T04:52:59.365Z,65.13
2023-02-14T04:55:32.607Z,82.68
2023-02-14T04:58:06.413Z,75.50
2023-02-14T05:00:41.305Z,80.20
2023-02-14T05:03:14.779Z,79.25
2023-02-14T05:05:47.945Z,77.72
2023-02-14T05:08:21.481Z,116.97
2023-02-14T05:10:55.741Z,137.20
2023-02-14T05:13:29.996Z,127.18
2023-02-14T05:16:05.730Z,132.07
2023-02-14T05:18:38.938Z,131.02
2023-02-14T05:21:12.349Z,105.28
2023-02-14T05:23:46.715Z,94.07
2023-02-14T05:26:20.194Z,112.60
2023-02-14T05:28:53.912Z,115.03
2023-02-14T05:31:30.553Z,123.82
2023-02-14T05:34:03.967Z,115.95
2023-02-14T05:36:37.096Z,117.03
2023-02-14T05:39:10.887Z,117.60
2023-02-14T05:41:45.034Z,109.40
2023-02-14T05:44:18.710Z,105.03
2023-02-14T05:49:28.289Z,99.10
2023-02-14T05:52:01.461Z,113.60
2023-02-14T05:54:35.867Z,102.90
2023-02-14T05:57:09.081Z,90.88
2023-02-14T05:59:42.788Z,125.80
2023-02-14T06:02:17.771Z,119.18
2023-02-14T06:04:51.222Z,131.73
2023-02-14T06:07:24.539Z,116.35
2023-02-14T06:09:57.902Z,117.20
2023-02-14T06:15:05.482Z,131.98
2023-02-14T06:17:40.840Z,124.60
2023-02-14T06:20:14.554Z,123.70
2023-02-14T06:22:47.757Z,123.75
2023-02-14T06:27:57.213Z,144.02
2023-02-14T06:30:31.517Z,147.70
2023-02-14T06:33:06.710Z,131.35
2023-02-14T06:35:40.243Z,139.80
2023-02-14T06:38:13.568Z,140.88
2023-02-14T06:40:46.932Z,152.02
2023-02-14T06:43:20.188Z,144.77
2023-02-14T06:45:53.420Z,151.52
2023-02-14T06:48:28.326Z,157.43
2023-02-14T06:51:02.259Z,148.68
2023-02-14T06:53:36.112Z,140.30
2023-02-14T06:56:09.647Z,147.98
2023-02-14T06:58:43.206Z,186.15
2023-02-14T07:01:16.544Z,190.60
2023-02-14T07:03:51.070Z,173.88
2023-02-14T07:06:24.760Z,164.63
2023-02-14T07:08:58.073Z,154.43
2023-02-14T07:11:31.595Z,160.10
2023-02-14T07:14:05.282Z,165.15
2023-02-14T07:16:38.641Z,158.32
2023-02-14T07:19:14.309Z,161.77
2023-02-14T07:21:47.762Z,153.30
2023-02-14T07:24:21.327Z,151.52
2023-02-14T07:26:54.445Z,148.90
2023-02-14T07:29:27.988Z,145.50
2023-02-14T07:32:01.671Z,139.60
2023-02-14T07:34:36.842Z,123.97
2023-02-14T07:37:10.125Z,137.32
2023-02-14T07:39:44.273Z,126.38
2023-02-14T07:42:17.834Z,126.65
2023-02-14T07:44:51.065Z,126.38
2023-02-14T07:47:25.177Z,167.02
2023-02-14T07:49:59.894Z,172.32
2023-02-14T07:52:33.119Z,172.90
2023-02-14T07:55:07.618Z,173.88
2023-02-14T07:57:41.319Z,187.50
2023-02-14T08:00:15.491Z,161.48
2023-02-14T08:02:50.059Z,155.02
2023-02-14T08:05:24.785Z,70.00
2023-02-14T08:07:58.093Z,54.85
2023-02-14T08:10:31.456Z,39.42
2023-02-14T08:13:05.864Z,39.83
2023-02-14T08:15:56.857Z,41.97
2023-02-14T08:18:30.372Z,33.65
2023-02-14T08:23:41.534Z,39.28
2023-02-14T08:26:14.904Z,43.47
2023-02-14T08:28:48.129Z,40.33
2023-02-14T08:31:35.071Z,38.10
2023-02-14T08:34:09.580Z,40.47
2023-02-14T08:36:44.709Z,34.67
2023-02-14T08:39:17.912Z,42.70
2023-02-14T08:41:51.218Z,43.92
2023-02-14T08:44:24.572Z,40.20
2023-02-14T08:49:31.503Z,42.90
2023-02-14T08:52:06.546Z,38.60
2023-02-14T08:54:39.755Z,45.90
2023-02-14T08:57:12.970Z,42.67
2023-02-14T08:59:46.452Z,37.40
2023-02-14T09:02:19.816Z,42.95
2023-02-14T09:04:53.514Z,41.85
2023-02-14T09:07:28.522Z,37.75
2023-02-14T09:10:01.687Z,38.75
2023-02-14T09:12:35.850Z,39.40
2023-02-14T09:15:11.172Z,50.35
2023-02-14T09:17:45.123Z,45.85
2023-02-14T09:20:18.684Z,39.97
2023-02-14T09:22:56.567Z,37.45
2023-02-14T09:25:30.092Z,37.47
2023-02-14T09:28:03.395Z,36.78
2023-02-14T09:30:36.659Z,42.13
2023-02-14T09:33:11.398Z,37.90
2023-02-14T09:36:02.811Z,38.97
2023-02-14T09:38:37.606Z,39.10
2023-02-14T09:41:34.874Z,35.72
2023-02-14T09:44:13.810Z,41.53
2023-02-14T09:46:53.206Z,38.40
2023-02-14T09:49:32.952Z,35.28
2023-02-14T09:52:08.578Z,31.90
2023-02-14T09:54:46.433Z,35.63
2023-02-14T09:57:27.685Z,34.00
2023-02-14T10:00:12.659Z,36.17
2023-02-14T10:02:58.436Z,35.80
2023-02-14T10:05:37.048Z,39.25
2023-02-14T10:08:26.613Z,39.25
2023-02-14T10:11:07.252Z,34.03
2023-02-14T10:13:44.437Z,31.35
2023-02-14T10:16:26.780Z,30.80
2023-02-14T10:19:03.490Z,32.92
2023-02-14T10:21:41.495Z,29.73
2023-02-14T10:24:19.976Z,35.35
2023-02-14T10:26:59.542Z,36.00
2023-02-14T10:29:32.768Z,31.02
2023-02-14T10:32:15.153Z,30.02
2023-02-14T10:34:50.429Z,33.88
2023-02-14T10:37:37.288Z,32.30
2023-02-14T10:40:42.906Z,33.15
2023-02-14T10:43:29.680Z,37.28
2023-02-14T10:46:13.584Z,33.67
2023-02-14T10:48:57.857Z,33.30
2023-02-14T10:51:38.600Z,39.10
2023-02-14T10:54:20.700Z,29.98
2023-02-14T10:57:00.291Z,28.35
2023-02-14T10:59:44.033Z,31.92
2023-02-14T11:02:19.728Z,34.78
2023-02-14T11:04:53.984Z,33.33
2023-02-14T11:07:27.273Z,33.53
2023-02-14T11:10:00.857Z,27.92
2023-02-14T11:12:38.317Z,26.80
2023-02-14T11:15:23.625Z,31.77
2023-02-14T11:18:18.106Z,29.17
2023-02-14T11:21:02.387Z,35.72
2023-02-14T11:23:38.822Z,31.38
2023-02-14T11:26:18.604Z,29.55
2023-02-14T11:28:56.848Z,32.55
2023-02-14T11:31:34.776Z,30.70
2023-02-14T11:34:25.094Z,28.60
2023-02-14T11:36:58.652Z,30.15
2023-02-14T11:42:07.090Z,27.45
2023-02-14T11:47:31.192Z,30.45
2023-02-14T11:50:12.798Z,38.75
2023-02-14T11:52:52.157Z,32.22
2023-02-14T11:55:28.743Z,29.55
2023-02-14T11:58:05.515Z,30.38
2023-02-14T12:00:38.863Z,32.42
2023-02-14T12:03:20.251Z,24.00
2023-02-14T12:05:57.552Z,30.05
2023-02-14T12:08:33.346Z,24.95
2023-02-14T12:11:18.909Z,29.20
2023-02-14T12:13:55.073Z,28.63
2023-02-14T12:16:35.300Z,26.45
2023-02-14T12:19:18.259Z,24.30
2023-02-14T12:21:54.682Z,32.35
2023-02-14T12:24:34.612Z,23.85
2023-02-14T12:27:21.370Z,23.50
2023-02-14T12:30:00.907Z,33.00
2023-02-14T12:32:35.482Z,24.60
2023-02-14T12:35:17.331Z,26.70
2023-02-14T12:38:06.877Z,30.50
2023-02-14T12:40:52.307Z,24.98
2023-02-14T12:43:45.744Z,23.60
2023-02-14T12:46:56.572Z,25.75
2023-02-14T12:50:02.167Z,23.50
2023-02-14T12:52:49.510Z,21.77
2023-02-14T12:55:42.254Z,26.33
2023-02-14T12:58:30.169Z,17.42
2023-02-14T13:01:28.476Z,22.23
2023-02-14T13:04:43.404Z,18.83
2023-02-14T13:07:27.183Z,20.95
2023-02-14T13:10:10.151Z,20.85
2023-02-14T13:12:52.997Z,23.00
2023-02-14T13:15:35.681Z,19.05
2023-02-14T13:18:15.484Z,23.30
2023-02-14T13:20:53.234Z,20.35
2023-02-14T13:23:31.630Z,21.65
2023-02-14T13:26:12.575Z,20.90
2023-02-14T13:28:51.943Z,20.02
2023-02-14T13:31:25.837Z,23.05
2023-02-14T13:34:08.067Z,23.63
2023-02-14T13:36:42.462Z,18.75
2023-02-14T13:39:26.191Z,22.80
2023-02-14T13:42:01.310Z,20.23
2023-02-14T13:44:44.657Z,21.73
2023-02-14T13:47:20.907Z,22.48
2023-02-14T13:49:57.691Z,20.85
2023-02-14T13:52:42.481Z,20.60
2023-02-14T13:55:20.301Z,23.20
2023-02-14T13:58:05.333Z,19.85
2023-02-14T14:00:43.975Z,27.48
2023-02-14T14:03:57.571Z,29.08
2023-02-14T14:06:31.563Z,22.90
2023-02-14T14:12:01.909Z,22.48
2023-02-14T14:14:39.997Z,30.27
2023-02-14T14:17:26.202Z,23.35
2023-02-14T14:20:01.127Z,25.55
2023-02-14T14:22:48.318Z,29.67
2023-02-14T14:25:32.535Z,26.45
2023-02-14T14:28:12.090Z,26.77
2023-02-14T14:30:47.128Z,28.90
2023-02-14T14:33:27.471Z,26.67
2023-02-14T14:36:04.090Z,29.80
2023-02-14T14:38:49.515Z,39.17
2023-02-14T14:41:29.245Z,32.47
2023-02-14T14:44:03.322Z,34.20
2023-02-14T14:46:38.473Z,33.40
2023-02-14T14:49:13.795Z,33.33
2023-02-14T14:51:47.225Z,38.17
2023-02-14T14:54:25.087Z,37.83
2023-02-14T14:57:01.742Z,30.55
2023-02-14T14:59:37.412Z,30.85
2023-02-14T15:02:24.597Z,32.90
2023-02-14T15:04:57.753Z,28.58
2023-02-14T15:07:35.268Z,34.95
2023-02-14T15:10:23.434Z,29.38
2023-02-14T15:13:17.813Z,37.00
2023-02-14T15:15:52.856Z,30.58
2023-02-14T15:18:29.428Z,33.85
2023-02-14T15:21:04.702Z,31.35
2023-02-14T15:23:38.049Z,29.17
2023-02-14T15:26:18.928Z,33.22
2023-02-14T15:28:57.606Z,27.35
2023-02-14T15:31:33.235Z,30.70
2023-02-14T15:34:09.911Z,32.33
2023-02-14T15:36:54.047Z,30.85
2023-02-14T15:39:31.801Z,27.65
2023-02-14T15:42:06.205Z,40.33
2023-02-14T15:44:40.346Z,30.92
2023-02-14T15:47:15.915Z,35.28
2023-02-14T15:49:50.979Z,37.60
2023-02-14T15:52:24.265Z,34.50
2023-02-14T15:54:57.755Z,33.70
2023-02-14T15:57:33.118Z,24.65
2023-02-14T16:00:12.657Z,27.08
2023-02-14T16:02:49.046Z,28.48
2023-02-14T16:05:25.864Z,32.10
2023-02-14T16:08:01.324Z,28.05
2023-02-14T16:10:36.409Z,28.38
2023-02-14T16:13:21.992Z,31.15
2023-02-14T16:16:00.583Z,29.85
2023-02-14T16:18:37.686Z,22.60
2023-02-14T16:21:15.522Z,30.00
2023-02-14T16:24:10.842Z,32.08
2023-02-14T16:26:45.955Z,32.53
2023-02-14T16:29:21.095Z,26.95
2023-02-14T16:32:14.792Z,30.27
2023-02-14T16:34:50.266Z,32.13
2023-02-14T16:37:27.168Z,27.42
2023-02-14T16:40:02.470Z,28.40
2023-02-14T16:42:36.992Z,29.85
2023-02-14T16:45:16.448Z,29.63
2023-02-14T16:47:50.495Z,35.10
2023-02-14T16:50:24.175Z,28.95
2023-02-14T16:52:59.531Z,29.35
2023-02-14T16:55:32.946Z,31.83
2023-02-14T16:58:06.176Z,36.20
2023-02-14T17:00:39.939Z,36.53
2023-02-14T17:05:47.216Z,31.92
2023-02-14T17:08:21.845Z,36.63
2023-02-14T17:10:56.728Z,36.50
2023-02-14T17:13:33.579Z,37.15
2023-02-14T17:16:11.762Z,33.00
2023-02-14T17:18:49.697Z,39.20
2023-02-14T17:21:24.265Z,38.65
2023-02-14T17:23:59.040Z,37.70
2023-02-14T17:26:33.891Z,33.28
2023-02-14T17:29:08.017Z,35.75
2023-02-14T17:31:41.654Z,34.97
2023-02-14T17:34:15.682Z,34.65
2023-02-14T17:36:48.941Z,36.60
2023-02-14T17:39:23.894Z,39.38
2023-02-14T17:41:57.712Z,34.38
2023-02-14T17:44:34.483Z,33.22
2023-02-14T17:47:08.501Z,36.83
2023-02-14T17:49:41.908Z,33.88
2023-02-14T17:52:15.804Z,29.15
2023-02-14T17:57:23.404Z,34.10
2023-02-14T17:59:58.177Z,31.25
2023-02-14T18:02:31.866Z,30.90
2023-02-14T18:05:07.864Z,30.30
2023-02-14T18:07:41.060Z,28.75
2023-02-14T18:10:15.632Z,32.67
2023-02-14T18:12:49.379Z,36.33
2023-02-14T18:15:22.692Z,34.58
2023-02-14T18:17:56.234Z,33.28
2023-02-14T18:20:29.645Z,31.13
2023-02-14T18:23:07.052Z,28.40
2023-02-14T18:25:41.771Z,29.80
2023-02-14T18:28:15.100Z,39.22
2023-02-14T18:30:48.737Z,36.17
2023-02-14T18:33:24.126Z,37.25
2023-02-14T18:35:58.815Z,37.50
2023-02-14T18:38:32.051Z,35.10
2023-02-14T18:41:09.484Z,32.25
2023-02-14T18:43:42.961Z,34.92
2023-02-14T18:46:18.458Z,29.00
2023-02-14T18:48:52.247Z,26.77
2023-02-14T18:51:27.105Z,34.55
2023-02-14T18:54:04.871Z,30.25
2023-02-14T18:56:40.016Z,32.55
2023-02-14T18:59:14.410Z,32.00
2023-02-14T19:01:47.627Z,32.72
2023-02-14T19:04:21.720Z,30.65
2023-02-14T19:06:55.039Z,33.40
2023-02-14T19:09:29.496Z,33.35
2023-02-14T19:12:05.469Z,27.45
2023-02-14T19:14:39.238Z,36.70
2023-02-14T19:17:13.202Z,31.17
2023-02-14T19:19:47.730Z,29.02
2023-02-14T19:22:21.354Z,25.50
2023-02-14T19:24:54.937Z,26.95
2023-02-14T19:27:30.026Z,34.08
2023-02-14T19:30:03.536Z,31.27
2023-02-14T19:32:36.922Z,21.52
2023-02-14T19:35:10.097Z,27.42
2023-02-14T19:37:43.324Z,26.85
2023-02-14T19:40:16.441Z,23.00
2023-02-14T19:42:51.208Z,26.00
2023-02-14T19:45:25.052Z,29.98
2023-02-14T19:47:59.295Z,22.05
2023-02-14T19:50:33.251Z,26.52
2023-02-14T19:53:06.640Z,26.27
2023-02-14T19:55:40.501Z,27.63
2023-02-14T19:58:15.951Z,24.85
2023-02-14T20:00:58.078Z,24.50
2023-02-14T20:03:33.365Z,24.77
2023-02-14T20:06:06.827Z,29.92
2023-02-14T20:08:40.054Z,34.08
2023-02-14T20:11:25.932Z,28.67
2023-02-14T20:14:01.941Z,30.05
2023-02-14T20:16:36.612Z,33.00
2023-02-14T20:19:12.178Z,33.28
2023-02-14T20:21:47.596Z,32.08
2023-02-14T20:24:23.700Z,34.10
2023-02-14T20:26:57.542Z,31.45
2023-02-14T20:29:32.440Z,28.38
2023-02-14T20:32:06.402Z,32.85
2023-02-14T20:34:40.297Z,37.95
2023-02-14T20:37:13.542Z,37.00
2023-02-14T20:39:46.830Z,37.28
2023-02-14T20:42:20.061Z,40.72
2023-02-14T20:44:54.648Z,37.75
2023-02-14T20:47:28.743Z,36.33
2023-02-14T20:50:02.259Z,31.45
2023-02-14T20:52:37.503Z,40.28
2023-02-14T20:55:10.692Z,35.20
2023-02-14T20:57:43.805Z,34.75
2023-02-14T21:00:20.040Z,38.20
2023-02-14T21:02:53.812Z,37.60
2023-02-14T21:05:27.416Z,38.05
2023-02-14T21:08:00.950Z,33.83
2023-02-14T21:10:34.139Z,33.58
2023-02-14T21:13:08.717Z,35.58
2023-02-14T21:15:44.114Z,36.33
2023-02-14T21:18:17.465Z,32.58
2023-02-14T21:20:51.952Z,39.65
2023-02-14T21:23:25.326Z,34.20
2023-02-14T21:25:58.616Z,40.80
2023-02-14T21:28:32.130Z,37.08
2023-02-14T21:31:08.357Z,34.53
2023-02-14T21:33:41.804Z,35.45
2023-02-14T21:36:17.917Z,36.28
2023-02-14T21:38:52.195Z,29.50
2023-02-14T21:41:27.628Z,34.17
2023-02-14T21:44:02.644Z,30.10
2023-02-14T21:46:41.108Z,39.15
2023-02-14T21:49:32.129Z,27.98
2023-02-14T21:52:05.309Z,30.98
2023-02-14T21:54:38.970Z,35.45
2023-02-14T21:57:12.488Z,35.72
2023-02-14T21:59:45.797Z,38.22
2023-02-14T22:02:20.288Z,40.05
2023-02-14T22:04:53.500Z,34.08
2023-02-14T22:07:29.004Z,36.45
2023-02-14T22:10:02.713Z,34.28
2023-02-14T22:12:40.165Z,32.17
2023-02-14T22:15:13.960Z,32.90
2023-02-14T22:17:48.745Z,33.78
2023-02-14T22:20:22.074Z,27.30
2023-02-14T22:22:55.258Z,27.50
2023-02-14T22:25:28.626Z,27.63
2023-02-14T22:28:02.253Z,26.88
2023-02-14T22:30:35.831Z,29.52
2023-02-14T22:33:10.382Z,26.88
2023-02-14T22:35:43.695Z,28.85
2023-02-14T22:38:16.789Z,32.88
2023-02-14T22:40:50.077Z,37.97
2023-02-14T22:43:24.043Z,26.80
2023-02-14T22:45:57.637Z,31.05
2023-02-14T22:48:33.624Z,24.13
2023-02-14T22:51:12.838Z,29.60
2023-02-14T22:53:46.222Z,29.98
2023-02-14T22:56:22.156Z,28.50
2023-02-14T22:58:56.409Z,29.33
2023-02-14T23:01:29.866Z,37.65
2023-02-14T23:04:05.329Z,35.13
2023-02-14T23:06:38.959Z,39.78
2023-02-14T23:09:13.228Z,35.83
2023-02-14T23:11:48.885Z,33.53
2023-02-14T23:14:40.172Z,33.60
2023-02-14T23:17:33.979Z,30.52
2023-02-14T23:20:28.044Z,34.65
2023-02-14T23:23:01.640Z,30.30
2023-02-14T23:25:34.850Z,31.17
2023-02-14T23:28:07.894Z,35.78
2023-02-14T23:30:41.421Z,36.25
2023-02-14T23:33:15.141Z,31.35
2023-02-14T23:35:49.733Z,27.98
2023-02-14T23:38:23.387Z,35.05
2023-02-14T23:41:14.301Z,32.03
2023-02-14T23:43:49.931Z,31.67
2023-02-14T23:46:23.348Z,31.95
2023-02-14T23:48:56.868Z,29.95
2023-02-14T23:51:31.906Z,36.33
2023-02-14T23:54:05.288Z,36.42
2023-02-14T23:56:39.648Z,32.83
2023-02-14T23:59:14.517Z,34.13
